sensor_id;sensor_type;location;lat;lon;timestamp;pressure;altitude;pressure_sealevel;temperature;humidity
51715;BME280;39115;59.332;18.034;2023-04-09T00:01:33;102629.97;;;6.29;48.96
51715;BME280;39115;59.332;18.034;2023-04-09T00:03:53;102634.44;;;6.27;48.76
51715;BME280;39115;59.332;18.034;2023-04-09T00:06:14;102632.78;;;6.25;49.09
51715;BME280;39115;59.332;18.034;2023-04-09T00:08:34;102633.84;;;6.21;49.10
51715;BME280;39115;59.332;18.034;2023-04-09T00:10:56;102635.13;;;6.10;49.27
51715;BME280;39115;59.332;18.034;2023-04-09T00:13:16;102635.47;;;6.01;48.87
51715;BME280;39115;59.332;18.034;2023-04-09T00:15:37;102632.03;;;5.97;49.09
51715;BME280;39115;59.332;18.034;2023-04-09T00:17:57;102626.91;;;5.94;49.33
51715;BME280;39115;59.332;18.034;2023-04-09T00:20:18;102620.78;;;5.92;49.18
51715;BME280;39115;59.332;18.034;2023-04-09T00:22:38;102621.78;;;5.90;49.28
51715;BME280;39115;59.332;18.034;2023-04-09T00:24:58;102614.88;;;5.85;49.11
51715;BME280;39115;59.332;18.034;2023-04-09T00:27:19;102618.56;;;5.81;49.21
51715;BME280;39115;59.332;18.034;2023-04-09T00:29:40;102609.94;;;5.76;48.80
51715;BME280;39115;59.332;18.034;2023-04-09T00:32:00;102603.06;;;5.72;48.51
51715;BME280;39115;59.332;18.034;2023-04-09T00:34:20;102615.69;;;5.64;48.64
51715;BME280;39115;59.332;18.034;2023-04-09T00:36:41;102616.72;;;5.60;49.28
51715;BME280;39115;59.332;18.034;2023-04-09T00:39:01;102609.00;;;5.53;48.67
51715;BME280;39115;59.332;18.034;2023-04-09T00:41:21;102613.66;;;5.47;48.56
51715;BME280;39115;59.332;18.034;2023-04-09T00:43:42;102606.91;;;5.38;48.73
51715;BME280;39115;59.332;18.034;2023-04-09T00:46:02;102601.81;;;5.33;49.26
51715;BME280;39115;59.332;18.034;2023-04-09T00:48:23;102608.06;;;5.31;49.23
51715;BME280;39115;59.332;18.034;2023-04-09T00:50:43;102606.41;;;5.28;48.74
51715;BME280;39115;59.332;18.034;2023-04-09T00:53:04;102612.59;;;5.27;48.74
51715;BME280;39115;59.332;18.034;2023-04-09T00:55:24;102608.34;;;5.23;48.84
51715;BME280;39115;59.332;18.034;2023-04-09T00:57:45;102609.34;;;5.19;49.26
51715;BME280;39115;59.332;18.034;2023-04-09T01:00:06;102602.47;;;5.15;48.97
51715;BME280;39115;59.332;18.034;2023-04-09T01:02:26;102600.81;;;5.12;49.29
51715;BME280;39115;59.332;18.034;2023-04-09T01:04:47;102604.41;;;5.10;49.42
51715;BME280;39115;59.332;18.034;2023-04-09T01:09:30;102603.63;;;5.06;49.29
51715;BME280;39115;59.332;18.034;2023-04-09T01:16:54;102601.13;;;5.03;48.77
51715;BME280;39115;59.332;18.034;2023-04-09T01:21:42;102596.00;;;4.98;49.49
51715;BME280;39115;59.332;18.034;2023-04-09T01:29:19;102590.88;;;4.94;48.76
51715;BME280;39115;59.332;18.034;2023-04-09T01:31:40;102589.28;;;4.89;49.25
51715;BME280;39115;59.332;18.034;2023-04-09T01:34:02;102592.91;;;4.85;49.07
51715;BME280;39115;59.332;18.034;2023-04-09T01:36:23;102592.97;;;4.84;49.16
51715;BME280;39115;59.332;18.034;2023-04-09T01:38:45;102587.03;;;4.77;49.28
51715;BME280;39115;59.332;18.034;2023-04-09T01:41:09;102593.34;;;4.73;49.28
51715;BME280;39115;59.332;18.034;2023-04-09T01:43:30;102590.88;;;4.67;49.65
51715;BME280;39115;59.332;18.034;2023-04-09T01:45:51;102594.63;;;4.61;49.75
51715;BME280;39115;59.332;18.034;2023-04-09T01:48:12;102598.16;;;4.60;49.34
51715;BME280;39115;59.332;18.034;2023-04-09T01:50:33;102591.22;;;4.57;49.12
51715;BME280;39115;59.332;18.034;2023-04-09T01:52:54;102588.59;;;4.56;49.51
51715;BME280;39115;59.332;18.034;2023-04-09T01:55:15;102600.03;;;4.56;49.20
51715;BME280;39115;59.332;18.034;2023-04-09T01:57:35;102588.66;;;4.54;49.28
51715;BME280;39115;59.332;18.034;2023-04-09T01:59:55;102596.72;;;4.50;49.56
51715;BME280;39115;59.332;18.034;2023-04-09T02:02:17;102595.88;;;4.49;49.25
51715;BME280;39115;59.332;18.034;2023-04-09T02:04:39;102596.72;;;4.50;48.95
51715;BME280;39115;59.332;18.034;2023-04-09T02:07:09;102596.78;;;4.48;49.21
51715;BME280;39115;59.332;18.034;2023-04-09T02:09:34;102599.47;;;4.47;49.21
51715;BME280;39115;59.332;18.034;2023-04-09T02:11:56;102598.59;;;4.46;49.59
51715;BME280;39115;59.332;18.034;2023-04-09T02:14:17;102601.31;;;4.45;49.11
51715;BME280;39115;59.332;18.034;2023-04-09T02:16:38;102598.81;;;4.40;49.02
51715;BME280;39115;59.332;18.034;2023-04-09T02:18:58;102604.16;;;4.37;49.26
51715;BME280;39115;59.332;18.034;2023-04-09T02:21:22;102606.09;;;4.32;48.89
51715;BME280;39115;59.332;18.034;2023-04-09T02:23:43;102601.84;;;4.27;49.09
51715;BME280;39115;59.332;18.034;2023-04-09T02:26:03;102603.75;;;4.22;49.49
51715;BME280;39115;59.332;18.034;2023-04-09T02:28:23;102610.81;;;4.22;49.34
51715;BME280;39115;59.332;18.034;2023-04-09T02:30:44;102611.72;;;4.21;49.37
51715;BME280;39115;59.332;18.034;2023-04-09T02:33:04;102614.50;;;4.16;49.53
51715;BME280;39115;59.332;18.034;2023-04-09T02:35:24;102614.72;;;4.08;49.44
51715;BME280;39115;59.332;18.034;2023-04-09T02:37:45;102610.50;;;4.03;49.33
51715;BME280;39115;59.332;18.034;2023-04-09T02:40:05;102608.00;;;3.98;49.62
51715;BME280;39115;59.332;18.034;2023-04-09T02:42:26;102601.97;;;3.94;49.47
51715;BME280;39115;59.332;18.034;2023-04-09T02:44:46;102602.94;;;3.92;49.43
51715;BME280;39115;59.332;18.034;2023-04-09T02:47:06;102604.63;;;3.93;49.72
51715;BME280;39115;59.332;18.034;2023-04-09T02:49:27;102601.97;;;3.94;49.46
51715;BME280;39115;59.332;18.034;2023-04-09T02:51:47;102603.72;;;3.94;49.41
51715;BME280;39115;59.332;18.034;2023-04-09T02:54:07;102609.97;;;3.91;49.23
51715;BME280;39115;59.332;18.034;2023-04-09T02:56:28;102604.75;;;3.90;49.42
51715;BME280;39115;59.332;18.034;2023-04-09T02:58:48;102606.50;;;3.89;49.33
51715;BME280;39115;59.332;18.034;2023-04-09T03:01:12;102606.47;;;3.91;49.38
51715;BME280;39115;59.332;18.034;2023-04-09T03:03:33;102601.16;;;3.92;49.31
51715;BME280;39115;59.332;18.034;2023-04-09T03:05:53;102607.25;;;3.93;49.30
51715;BME280;39115;59.332;18.034;2023-04-09T03:08:13;102604.59;;;3.94;49.60
51715;BME280;39115;59.332;18.034;2023-04-09T03:10:34;102609.81;;;3.96;49.37
51715;BME280;39115;59.332;18.034;2023-04-09T03:12:54;102611.59;;;3.95;49.08
51715;BME280;39115;59.332;18.034;2023-04-09T03:15:14;102608.06;;;3.97;49.34
51715;BME280;39115;59.332;18.034;2023-04-09T03:17:35;102602.81;;;3.95;49.30
51715;BME280;39115;59.332;18.034;2023-04-09T03:19:56;102601.97;;;3.94;49.27
51715;BME280;39115;59.332;18.034;2023-04-09T03:22:16;102599.28;;;3.96;49.33
51715;BME280;39115;59.332;18.034;2023-04-09T03:24:36;102604.63;;;3.93;49.38
51715;BME280;39115;59.332;18.034;2023-04-09T03:26:57;102601.06;;;3.95;49.01
51715;BME280;39115;59.332;18.034;2023-04-09T03:29:17;102601.91;;;3.96;49.44
51715;BME280;39115;59.332;18.034;2023-04-09T03:31:38;102605.44;;;3.97;49.07
51715;BME280;39115;59.332;18.034;2023-04-09T03:33:58;102601.97;;;3.94;49.46
51715;BME280;39115;59.332;18.034;2023-04-09T03:36:19;102594.25;;;3.88;49.17
51715;BME280;39115;59.332;18.034;2023-04-09T03:38:39;102601.41;;;3.85;49.22
51715;BME280;39115;59.332;18.034;2023-04-09T03:41:00;102605.97;;;3.78;49.45
51715;BME280;39115;59.332;18.034;2023-04-09T03:43:20;102609.56;;;3.75;49.38
51715;BME280;39115;59.332;18.034;2023-04-09T03:45:40;102611.38;;;3.73;49.54
51715;BME280;39115;59.332;18.034;2023-04-09T03:48:01;102606.94;;;3.74;49.44
51715;BME280;39115;59.332;18.034;2023-04-09T03:50:21;102609.63;;;3.72;49.68
51715;BME280;39115;59.332;18.034;2023-04-09T03:52:41;102604.47;;;3.69;49.33
51715;BME280;39115;59.332;18.034;2023-04-09T03:55:02;102607.06;;;3.71;49.57
51715;BME280;39115;59.332;18.034;2023-04-09T03:57:23;102612.22;;;3.74;49.42
51715;BME280;39115;59.332;18.034;2023-04-09T03:59:43;102606.94;;;3.74;49.38
51715;BME280;39115;59.332;18.034;2023-04-09T04:02:04;102603.41;;;3.75;49.40
51715;BME280;39115;59.332;18.034;2023-04-09T04:04:24;102604.28;;;3.75;49.39
51715;BME280;39115;59.332;18.034;2023-04-09T04:06:45;102609.56;;;3.75;49.19
51715;BME280;39115;59.332;18.034;2023-04-09T04:09:05;102613.94;;;3.75;49.55
51715;BME280;39115;59.332;18.034;2023-04-09T04:11:25;102609.56;;;3.75;49.45
51715;BME280;39115;59.332;18.034;2023-04-09T04:13:45;102613.09;;;3.74;49.43
51715;BME280;39115;59.332;18.034;2023-04-09T04:16:06;102617.47;;;3.75;49.31
51715;BME280;39115;59.332;18.034;2023-04-09T04:18:27;102618.25;;;3.77;49.52
51715;BME280;39115;59.332;18.034;2023-04-09T04:20:48;102621.66;;;3.81;49.38
51715;BME280;39115;59.332;18.034;2023-04-09T04:23:08;102615.50;;;3.82;49.45
51715;BME280;39115;59.332;18.034;2023-04-09T04:25:28;102617.91;;;3.90;49.32
51715;BME280;39115;59.332;18.034;2023-04-09T04:27:49;102624.78;;;3.95;49.42
51715;BME280;39115;59.332;18.034;2023-04-09T04:30:10;102612.38;;;3.99;49.48
51715;BME280;39115;59.332;18.034;2023-04-09T04:32:30;102612.25;;;4.04;49.40
51715;BME280;39115;59.332;18.034;2023-04-09T04:34:50;102620.91;;;4.07;49.27
51715;BME280;39115;59.332;18.034;2023-04-09T04:37:12;102616.34;;;4.13;49.54
51715;BME280;39115;59.332;18.034;2023-04-09T04:39:32;102614.41;;;4.19;49.41
51715;BME280;39115;59.332;18.034;2023-04-09T04:41:53;102615.16;;;4.23;48.97
51715;BME280;39115;59.332;18.034;2023-04-09T04:44:13;102614.22;;;4.25;49.38
51715;BME280;39115;59.332;18.034;2023-04-09T04:46:33;102618.47;;;4.30;49.21
51715;BME280;39115;59.332;18.034;2023-04-09T04:48:54;102618.22;;;4.37;48.92
51715;BME280;39115;59.332;18.034;2023-04-09T04:51:14;102623.38;;;4.40;48.94
51715;BME280;39115;59.332;18.034;2023-04-09T04:53:34;102611.91;;;4.43;48.97
51715;BME280;39115;59.332;18.034;2023-04-09T04:55:55;102613.47;;;4.49;49.35
51715;BME280;39115;59.332;18.034;2023-04-09T04:58:15;102625.66;;;4.53;49.49
51715;BME280;39115;59.332;18.034;2023-04-09T05:00:36;102613.22;;;4.56;48.81
51715;BME280;39115;59.332;18.034;2023-04-09T05:02:56;102619.22;;;4.62;48.75
51715;BME280;39115;59.332;18.034;2023-04-09T05:05:16;102610.44;;;4.61;48.97
51715;BME280;39115;59.332;18.034;2023-04-09T05:07:36;102617.28;;;4.67;49.17
51715;BME280;39115;59.332;18.034;2023-04-09T05:09:57;102619.72;;;4.73;48.91
51715;BME280;39115;59.332;18.034;2023-04-09T05:12:17;102622.16;;;4.79;49.11
51715;BME280;39115;59.332;18.034;2023-04-09T05:14:38;102621.03;;;4.86;49.31
51715;BME280;39115;59.332;18.034;2023-04-09T05:16:58;102622.63;;;4.92;48.80
51715;BME280;39115;59.332;18.034;2023-04-09T05:19:19;102625.03;;;4.98;49.24
51715;BME280;39115;59.332;18.034;2023-04-09T05:21:39;102621.28;;;5.05;48.81
51715;BME280;39115;59.332;18.034;2023-04-09T05:23:59;102621.13;;;5.10;49.11
51715;BME280;39115;59.332;18.034;2023-04-09T05:26:20;102621.88;;;5.14;48.94
51715;BME280;39115;59.332;18.034;2023-04-09T05:28:41;102627.84;;;5.19;49.20
51715;BME280;39115;59.332;18.034;2023-04-09T05:31:02;102623.38;;;5.21;49.08
51715;BME280;39115;59.332;18.034;2023-04-09T05:33:22;102624.06;;;5.26;48.83
51715;BME280;39115;59.332;18.034;2023-04-09T05:35:42;102620.41;;;5.30;49.06
51715;BME280;39115;59.332;18.034;2023-04-09T05:38:03;102626.44;;;5.34;48.67
51715;BME280;39115;59.332;18.034;2023-04-09T05:40:23;102623.81;;;5.34;48.81
51715;BME280;39115;59.332;18.034;2023-04-09T05:42:43;102635.97;;;5.38;48.97
51715;BME280;39115;59.332;18.034;2023-04-09T05:45:04;102631.50;;;5.40;48.79
51715;BME280;39115;59.332;18.034;2023-04-09T05:47:24;102627.84;;;5.44;48.83
51715;BME280;39115;59.332;18.034;2023-04-09T05:49:45;102633.75;;;5.51;48.87
51715;BME280;39115;59.332;18.034;2023-04-09T05:52:05;102627.41;;;5.57;48.59
51715;BME280;39115;59.332;18.034;2023-04-09T05:54:26;102628.91;;;5.64;48.78
51715;BME280;39115;59.332;18.034;2023-04-09T05:56:46;102631.25;;;5.72;48.94
51715;BME280;39115;59.332;18.034;2023-04-09T05:59:07;102627.47;;;5.79;48.78
51715;BME280;39115;59.332;18.034;2023-04-09T06:01:27;102631.59;;;5.86;48.74
51715;BME280;39115;59.332;18.034;2023-04-09T06:03:48;102627.84;;;5.92;48.94
51715;BME280;39115;59.332;18.034;2023-04-09T06:06:09;102627.75;;;5.95;48.69
51715;BME280;39115;59.332;18.034;2023-04-09T06:08:29;102632.88;;;5.99;48.46
51715;BME280;39115;59.332;18.034;2023-04-09T06:10:49;102627.34;;;6.06;48.60
51715;BME280;39115;59.332;18.034;2023-04-09T06:13:10;102630.63;;;6.12;48.89
51715;BME280;39115;59.332;18.034;2023-04-09T06:15:30;102628.66;;;6.17;49.04
51715;BME280;39115;59.332;18.034;2023-04-09T06:17:50;102631.06;;;6.24;48.58
51715;BME280;39115;59.332;18.034;2023-04-09T06:20:11;102637.00;;;6.30;48.60
51715;BME280;39115;59.332;18.034;2023-04-09T06:22:31;102635.75;;;6.39;48.78
51715;BME280;39115;59.332;18.034;2023-04-09T06:24:51;102641.66;;;6.46;48.14
51715;BME280;39115;59.332;18.034;2023-04-09T06:27:12;102636.94;;;6.54;48.58
51715;BME280;39115;59.332;18.034;2023-04-09T06:29:32;102641.91;;;6.62;48.68
51715;BME280;39115;59.332;18.034;2023-04-09T06:31:52;102644.16;;;6.71;48.18
51715;BME280;39115;59.332;18.034;2023-04-09T06:34:13;102650.88;;;6.80;48.42
51715;BME280;39115;59.332;18.034;2023-04-09T06:36:33;102651.47;;;6.87;48.65
51715;BME280;39115;59.332;18.034;2023-04-09T06:38:56;102648.53;;;6.94;48.19
51715;BME280;39115;59.332;18.034;2023-04-09T06:41:24;102656.28;;;6.99;48.55
51715;BME280;39115;59.332;18.034;2023-04-09T06:43:45;102651.91;;;6.98;48.49
51715;BME280;39115;59.332;18.034;2023-04-09T06:46:05;102654.34;;;7.03;48.65
51715;BME280;39115;59.332;18.034;2023-04-09T06:48:26;102646.22;;;7.07;48.54
51715;BME280;39115;59.332;18.034;2023-04-09T06:50:46;102652.09;;;7.14;48.50
51715;BME280;39115;59.332;18.034;2023-04-09T06:53:06;102649.31;;;7.17;48.39
51715;BME280;39115;59.332;18.034;2023-04-09T06:55:27;102645.59;;;7.21;48.59
51715;BME280;39115;59.332;18.034;2023-04-09T06:57:48;102646.22;;;7.28;48.15
51715;BME280;39115;59.332;18.034;2023-04-09T07:00:08;102646.94;;;7.32;48.19
51715;BME280;39115;59.332;18.034;2023-04-09T07:02:29;102651.16;;;7.36;48.56
51715;BME280;39115;59.332;18.034;2023-04-09T07:04:49;102651.88;;;7.39;48.59
51715;BME280;39115;59.332;18.034;2023-04-09T07:07:09;102645.38;;;7.47;48.09
51715;BME280;39115;59.332;18.034;2023-04-09T07:09:30;102655.56;;;7.56;48.25
51715;BME280;39115;59.332;18.034;2023-04-09T07:11:50;102649.03;;;7.65;48.18
51715;BME280;39115;59.332;18.034;2023-04-09T07:14:10;102651.25;;;7.74;48.11
51715;BME280;39115;59.332;18.034;2023-04-09T07:16:31;102651.63;;;7.85;48.10
51715;BME280;39115;59.332;18.034;2023-04-09T07:18:51;102653.06;;;7.93;48.23
51715;BME280;39115;59.332;18.034;2023-04-09T07:21:12;102647.34;;;8.02;47.99
51715;BME280;39115;59.332;18.034;2023-04-09T07:23:35;102647.91;;;8.09;47.95
51715;BME280;39115;59.332;18.034;2023-04-09T07:25:56;102644.19;;;8.13;48.04
51715;BME280;39115;59.332;18.034;2023-04-09T07:28:16;102645.91;;;8.14;47.94
51715;BME280;39115;59.332;18.034;2023-04-09T07:30:37;102644.97;;;8.15;47.97
51715;BME280;39115;59.332;18.034;2023-04-09T07:32:58;102644.88;;;8.16;48.21
51715;BME280;39115;59.332;18.034;2023-04-09T07:35:18;102648.38;;;8.17;47.99
51715;BME280;39115;59.332;18.034;2023-04-09T07:37:38;102645.53;;;8.21;47.75
51715;BME280;39115;59.332;18.034;2023-04-09T07:39:59;102647.97;;;8.26;47.95
51715;BME280;39115;59.332;18.034;2023-04-09T07:42:20;102642.53;;;8.29;48.16
51715;BME280;39115;59.332;18.034;2023-04-09T07:44:40;102652.03;;;8.33;48.11
51715;BME280;39115;59.332;18.034;2023-04-09T07:47:01;102647.44;;;8.37;48.36
51715;BME280;39115;59.332;18.034;2023-04-09T07:49:21;102650.88;;;8.39;48.38
51715;BME280;39115;59.332;18.034;2023-04-09T07:51:42;102644.66;;;8.40;48.08
51715;BME280;39115;59.332;18.034;2023-04-09T07:54:02;102651.47;;;8.46;48.10
51715;BME280;39115;59.332;18.034;2023-04-09T07:56:22;102655.63;;;8.51;48.28
51715;BME280;39115;59.332;18.034;2023-04-09T07:58:43;102651.91;;;8.56;47.89
51715;BME280;39115;59.332;18.034;2023-04-09T08:01:03;102654.25;;;8.62;48.06
51715;BME280;39115;59.332;18.034;2023-04-09T08:03:24;102643.41;;;8.66;48.38
51715;BME280;39115;59.332;18.034;2023-04-09T08:05:45;102648.50;;;8.71;48.02
51715;BME280;39115;59.332;18.034;2023-04-09T08:08:05;102646.53;;;8.75;47.65
51715;BME280;39115;59.332;18.034;2023-04-09T08:10:25;102649.06;;;8.78;47.97
51715;BME280;39115;59.332;18.034;2023-04-09T08:12:46;102650.47;;;8.85;47.97
51715;BME280;39115;59.332;18.034;2023-04-09T08:15:07;102650.16;;;8.91;48.30
51715;BME280;39115;59.332;18.034;2023-04-09T08:17:28;102642.09;;;8.93;48.15
51715;BME280;39115;59.332;18.034;2023-04-09T08:19:48;102646.34;;;8.97;48.03
51715;BME280;39115;59.332;18.034;2023-04-09T08:22:08;102648.75;;;9.01;47.96
51715;BME280;39115;59.332;18.034;2023-04-09T08:24:29;102647.56;;;9.07;48.08
51715;BME280;39115;59.332;18.034;2023-04-09T08:26:50;102647.31;;;9.12;47.67
51715;BME280;39115;59.332;18.034;2023-04-09T08:29:11;102639.91;;;9.18;47.97
51715;BME280;39115;59.332;18.034;2023-04-09T08:31:32;102643.97;;;9.26;47.70
51715;BME280;39115;59.332;18.034;2023-04-09T08:33:52;102637.53;;;9.30;47.77
51715;BME280;39115;59.332;18.034;2023-04-09T08:36:12;102635.56;;;9.33;47.77
51715;BME280;39115;59.332;18.034;2023-04-09T08:38:32;102635.09;;;9.43;47.57
51715;BME280;39115;59.332;18.034;2023-04-09T08:40:53;102641.75;;;9.52;47.52
51715;BME280;39115;59.332;18.034;2023-04-09T08:43:14;102636.94;;;9.58;47.16
51715;BME280;39115;59.332;18.034;2023-04-09T08:45:34;102635.19;;;9.75;47.35
51715;BME280;39115;59.332;18.034;2023-04-09T08:47:55;102640.00;;;10.00;47.56
51715;BME280;39115;59.332;18.034;2023-04-09T08:50:18;102637.34;;;10.32;46.95
51715;BME280;39115;59.332;18.034;2023-04-09T08:52:39;102636.09;;;10.55;46.72
51715;BME280;39115;59.332;18.034;2023-04-09T08:54:59;102632.75;;;10.82;46.11
51715;BME280;39115;59.332;18.034;2023-04-09T08:57:20;102632.25;;;11.06;46.47
51715;BME280;39115;59.332;18.034;2023-04-09T08:59:40;102630.19;;;11.26;46.14
51715;BME280;39115;59.332;18.034;2023-04-09T09:02:07;102627.31;;;11.43;46.37
51715;BME280;39115;59.332;18.034;2023-04-09T09:04:30;102624.19;;;11.65;45.88
51715;BME280;39115;59.332;18.034;2023-04-09T09:07:05;102630.66;;;11.90;46.06
51715;BME280;39115;59.332;18.034;2023-04-09T09:09:25;102630.19;;;12.12;46.11
51715;BME280;39115;59.332;18.034;2023-04-09T09:11:46;102624.69;;;12.28;45.57
51715;BME280;39115;59.332;18.034;2023-04-09T09:14:11;102626.53;;;12.41;45.78
51715;BME280;39115;59.332;18.034;2023-04-09T09:16:32;102621.72;;;12.60;45.60
51715;BME280;39115;59.332;18.034;2023-04-09T09:18:53;102620.00;;;12.59;45.85
51715;BME280;39115;59.332;18.034;2023-04-09T09:21:16;102615.19;;;12.52;45.93
51715;BME280;39115;59.332;18.034;2023-04-09T09:23:36;102619.41;;;12.41;46.30
51715;BME280;39115;59.332;18.034;2023-04-09T09:25:57;102621.06;;;12.29;46.36
51715;BME280;39115;59.332;18.034;2023-04-09T09:28:17;102617.19;;;12.21;46.79
51715;BME280;39115;59.332;18.034;2023-04-09T09:30:38;102615.56;;;12.18;46.47
51715;BME280;39115;59.332;18.034;2023-04-09T09:33:06;102613.00;;;12.16;46.76
51715;BME280;39115;59.332;18.034;2023-04-09T09:35:27;102612.16;;;12.16;46.39
51715;BME280;39115;59.332;18.034;2023-04-09T09:37:54;102608.47;;;12.04;46.80
51715;BME280;39115;59.332;18.034;2023-04-09T09:40:26;102604.16;;;12.16;46.63
51715;BME280;39115;59.332;18.034;2023-04-09T09:42:53;102604.88;;;12.18;46.42
51715;BME280;39115;59.332;18.034;2023-04-09T09:45:17;102603.28;;;12.15;46.92
51715;BME280;39115;59.332;18.034;2023-04-09T09:47:38;102604.19;;;12.29;46.59
51715;BME280;39115;59.332;18.034;2023-04-09T09:49:58;102605.63;;;12.47;46.33
51715;BME280;39115;59.332;18.034;2023-04-09T09:52:20;102604.50;;;12.64;46.13
51715;BME280;39115;59.332;18.034;2023-04-09T09:54:42;102601.78;;;12.79;46.26
51715;BME280;39115;59.332;18.034;2023-04-09T09:57:03;102602.09;;;12.87;46.19
51715;BME280;39115;59.332;18.034;2023-04-09T09:59:29;102605.22;;;12.94;45.93
51715;BME280;39115;59.332;18.034;2023-04-09T10:01:55;102589.69;;;12.99;45.80
51715;BME280;39115;59.332;18.034;2023-04-09T10:04:16;102591.09;;;13.05;45.93
51715;BME280;39115;59.332;18.034;2023-04-09T10:06:39;102591.88;;;13.07;45.85
51715;BME280;39115;59.332;18.034;2023-04-09T10:09:03;102590.91;;;13.08;45.83
51715;BME280;39115;59.332;18.034;2023-04-09T10:11:23;102584.47;;;13.10;45.80
51715;BME280;39115;59.332;18.034;2023-04-09T10:13:52;102583.28;;;13.15;45.85
51715;BME280;39115;59.332;18.034;2023-04-09T10:16:15;102587.16;;;13.23;45.78
51715;BME280;39115;59.332;18.034;2023-04-09T10:18:36;102590.25;;;13.30;45.73
51715;BME280;39115;59.332;18.034;2023-04-09T10:20:57;102585.53;;;13.34;45.72
51715;BME280;39115;59.332;18.034;2023-04-09T10:23:21;102585.44;;;13.35;45.78
51715;BME280;39115;59.332;18.034;2023-04-09T10:25:43;102585.44;;;13.35;45.81
51715;BME280;39115;59.332;18.034;2023-04-09T10:28:05;102579.13;;;13.36;45.94
51715;BME280;39115;59.332;18.034;2023-04-09T10:30:34;102572.75;;;13.39;45.94
51715;BME280;39115;59.332;18.034;2023-04-09T10:32:54;102566.44;;;13.40;45.81
51715;BME280;39115;59.332;18.034;2023-04-09T10:35:17;102573.59;;;13.39;45.74
51715;BME280;39115;59.332;18.034;2023-04-09T10:37:47;102569.00;;;13.41;45.87
51715;BME280;39115;59.332;18.034;2023-04-09T10:40:08;102570.59;;;13.44;45.82
51715;BME280;39115;59.332;18.034;2023-04-09T10:42:38;102565.88;;;13.48;45.83
51715;BME280;39115;59.332;18.034;2023-04-09T10:45:08;102569.09;;;13.53;45.85
51715;BME280;39115;59.332;18.034;2023-04-09T10:47:32;102573.88;;;13.60;45.82
51715;BME280;39115;59.332;18.034;2023-04-09T10:49:53;102571.38;;;13.70;45.80
51715;BME280;39115;59.332;18.034;2023-04-09T10:52:14;102563.78;;;13.77;45.88
51715;BME280;39115;59.332;18.034;2023-04-09T10:54:42;102563.06;;;13.49;46.06
51715;BME280;39115;59.332;18.034;2023-04-09T10:59:27;102565.88;;;13.22;46.17
51715;BME280;39115;59.332;18.034;2023-04-09T11:01:51;102566.94;;;13.19;46.25
51715;BME280;39115;59.332;18.034;2023-04-09T11:04:15;102566.28;;;13.03;46.33
51715;BME280;39115;59.332;18.034;2023-04-09T11:06:37;102563.22;;;13.09;46.25
51715;BME280;39115;59.332;18.034;2023-04-09T11:09:00;102562.97;;;13.25;46.10
51715;BME280;39115;59.332;18.034;2023-04-09T11:11:24;102563.75;;;13.40;45.93
51715;BME280;39115;59.332;18.034;2023-04-09T11:13:45;102564.38;;;13.56;45.92
51715;BME280;39115;59.332;18.034;2023-04-09T11:16:05;102569.66;;;13.69;45.72
51715;BME280;39115;59.332;18.034;2023-04-09T11:18:27;102569.31;;;13.87;45.66
51715;BME280;39115;59.332;18.034;2023-04-09T11:20:48;102574.41;;;14.03;45.77
51715;BME280;39115;59.332;18.034;2023-04-09T11:23:09;102573.28;;;14.18;45.33
51715;BME280;39115;59.332;18.034;2023-04-09T11:25:30;102564.78;;;14.25;45.20
51715;BME280;39115;59.332;18.034;2023-04-09T11:27:51;102572.81;;;14.25;45.40
51715;BME280;39115;59.332;18.034;2023-04-09T11:30:11;102558.97;;;14.31;45.30
51715;BME280;39115;59.332;18.034;2023-04-09T11:32:32;102561.16;;;14.37;45.55
51715;BME280;39115;59.332;18.034;2023-04-09T11:34:52;102563.91;;;14.48;45.36
51715;BME280;39115;59.332;18.034;2023-04-09T11:37:13;102558.91;;;14.55;45.67
51715;BME280;39115;59.332;18.034;2023-04-09T11:39:36;102557.69;;;14.72;45.36
51715;BME280;39115;59.332;18.034;2023-04-09T11:41:57;102548.44;;;14.88;45.16
51715;BME280;39115;59.332;18.034;2023-04-09T11:44:19;102542.13;;;15.00;45.30
51715;BME280;39115;59.332;18.034;2023-04-09T11:46:40;102553.47;;;15.15;45.19
51715;BME280;39115;59.332;18.034;2023-04-09T11:49:03;102546.63;;;15.11;45.45
51715;BME280;39115;59.332;18.034;2023-04-09T11:51:25;102547.47;;;15.00;45.71
51715;BME280;39115;59.332;18.034;2023-04-09T11:53:46;102548.31;;;14.89;45.78
51715;BME280;39115;59.332;18.034;2023-04-09T11:56:07;102554.38;;;14.80;45.89
51715;BME280;39115;59.332;18.034;2023-04-09T11:58:27;102546.75;;;14.86;45.41
51715;BME280;39115;59.332;18.034;2023-04-09T12:00:48;102550.91;;;15.02;45.51
51715;BME280;39115;59.332;18.034;2023-04-09T12:03:11;102546.25;;;14.93;45.48
51715;BME280;39115;59.332;18.034;2023-04-09T12:05:32;102545.78;;;14.88;45.46
51715;BME280;39115;59.332;18.034;2023-04-09T12:07:57;102546.00;;;14.84;45.69
51715;BME280;39115;59.332;18.034;2023-04-09T12:10:18;102551.84;;;14.78;45.68
51715;BME280;39115;59.332;18.034;2023-04-09T12:12:43;102551.09;;;14.76;45.55
51715;BME280;39115;59.332;18.034;2023-04-09T12:15:23;102551.09;;;14.76;45.89
51715;BME280;39115;59.332;18.034;2023-04-09T12:17:45;102548.66;;;14.73;45.57
51715;BME280;39115;59.332;18.034;2023-04-09T12:20:06;102551.69;;;14.68;45.63
51715;BME280;39115;59.332;18.034;2023-04-09T12:22:28;102552.84;;;14.64;45.82
51715;BME280;39115;59.332;18.034;2023-04-09T12:24:49;102548.72;;;14.60;45.94
51715;BME280;39115;59.332;18.034;2023-04-09T12:27:09;102555.28;;;14.56;45.96
51715;BME280;39115;59.332;18.034;2023-04-09T12:29:30;102555.13;;;14.46;45.82
51715;BME280;39115;59.332;18.034;2023-04-09T12:31:52;102555.81;;;14.37;46.05
51715;BME280;39115;59.332;18.034;2023-04-09T12:34:13;102550.91;;;14.31;45.80